sensor_id;sensor_type;location;lat;lon;timestamp;pressure;altitude;pressure_sealevel;temperature;humidity
46782;BME280;32541;46.298;11.506;2022-10-23T14:38:30;90039.03;;;14.95;86.04
46782;BME280;32541;46.298;11.506;2022-10-23T14:40:56;90028.91;;;15.00;87.73
46782;BME280;32541;46.298;11.506;2022-10-23T14:43:22;90029.88;;;14.93;85.79
46782;BME280;32541;46.298;11.506;2022-10-23T14:45:48;90031.28;;;14.94;85.04
46782;BME280;32541;46.298;11.506;2022-10-23T14:48:13;90035.41;;;14.93;85.47
46782;BME280;32541;46.298;11.506;2022-10-23T14:50:45;90039.72;;;14.84;86.03
46782;BME280;32541;46.298;11.506;2022-10-23T14:53:11;90035.94;;;14.80;87.33
46782;BME280;32541;46.298;11.506;2022-10-23T14:55:37;90039.63;;;14.73;86.56
46782;BME280;32541;46.298;11.506;2022-10-23T14:58:02;90039.72;;;14.63;87.09
46782;BME280;32541;46.298;11.506;2022-10-23T15:00:28;90040.31;;;14.62;87.62
46782;BME280;32541;46.298;11.506;2022-10-23T15:02:54;90047.03;;;14.59;87.92
46782;BME280;32541;46.298;11.506;2022-10-23T15:05:19;90049.94;;;14.39;88.86
46782;BME280;32541;46.298;11.506;2022-10-23T15:07:45;90051.88;;;14.27;88.91
46782;BME280;32541;46.298;11.506;2022-10-23T15:10:10;90057.94;;;14.05;90.79
46782;BME280;32541;46.298;11.506;2022-10-23T15:12:37;90051.34;;;14.19;90.39
46782;BME280;32541;46.298;11.506;2022-10-23T15:15:04;90059.69;;;14.10;90.67
46782;BME280;32541;46.298;11.506;2022-10-23T15:17:29;90056.50;;;14.34;93.40
46782;BME280;32541;46.298;11.506;2022-10-23T15:19:56;90059.88;;;14.33;92.80
46782;BME280;32541;46.298;11.506;2022-10-23T15:22:22;90053.63;;;14.23;91.57
46782;BME280;32541;46.298;11.506;2022-10-23T15:24:47;90051.47;;;14.21;90.53
46782;BME280;32541;46.298;11.506;2022-10-23T15:27:13;90049.72;;;13.95;91.88
46782;BME280;32541;46.298;11.506;2022-10-23T15:29:38;90052.47;;;13.95;91.82
46782;BME280;32541;46.298;11.506;2022-10-23T15:32:04;90067.13;;;14.07;91.70
46782;BME280;32541;46.298;11.506;2022-10-23T15:34:31;90060.41;;;14.10;91.94
46782;BME280;32541;46.298;11.506;2022-10-23T15:36:58;90049.78;;;14.07;92.29
46782;BME280;32541;46.298;11.506;2022-10-23T15:39:26;90046.19;;;14.04;91.74
46782;BME280;32541;46.298;11.506;2022-10-23T15:41:54;90055.78;;;14.03;91.83
46782;BME280;32541;46.298;11.506;2022-10-23T15:44:22;90062.78;;;14.04;92.30
46782;BME280;32541;46.298;11.506;2022-10-23T15:46:48;90061.88;;;14.02;92.27
46782;BME280;32541;46.298;11.506;2022-10-23T15:49:14;90065.13;;;13.98;92.42
46782;BME280;32541;46.298;11.506;2022-10-23T15:51:40;90060.91;;;13.97;92.35
46782;BME280;32541;46.298;11.506;2022-10-23T15:54:08;90054.59;;;14.06;91.85
46782;BME280;32541;46.298;11.506;2022-10-23T15:56:35;90061.31;;;14.03;91.74
46782;BME280;32541;46.298;11.506;2022-10-23T15:59:00;90074.72;;;13.97;91.90
46782;BME280;32541;46.298;11.506;2022-10-23T16:01:26;90059.91;;;13.93;92.32
46782;BME280;32541;46.298;11.506;2022-10-23T16:03:52;90058.88;;;13.98;92.33
46782;BME280;32541;46.298;11.506;2022-10-23T16:06:18;90062.69;;;13.93;92.85
46782;BME280;32541;46.298;11.506;2022-10-23T16:08:44;90061.97;;;13.82;92.86
46782;BME280;32541;46.298;11.506;2022-10-23T16:11:19;90067.97;;;13.79;92.99
46782;BME280;32541;46.298;11.506;2022-10-23T16:13:46;90063.91;;;13.70;93.03
46782;BME280;32541;46.298;11.506;2022-10-23T16:16:12;90056.06;;;13.67;92.88
46782;BME280;32541;46.298;11.506;2022-10-23T16:18:38;90054.47;;;13.64;93.42
46782;BME280;32541;46.298;11.506;2022-10-23T16:21:04;90059.47;;;13.56;93.12
46782;BME280;32541;46.298;11.506;2022-10-23T16:23:29;90058.19;;;13.47;93.62
46782;BME280;32541;46.298;11.506;2022-10-23T16:26:01;90072.44;;;13.44;93.62
46782;BME280;32541;46.298;11.506;2022-10-23T16:28:26;90066.94;;;13.34;94.30
46782;BME280;32541;46.298;11.506;2022-10-23T16:30:51;90077.56;;;13.18;95.90
46782;BME280;32541;46.298;11.506;2022-10-23T16:33:17;90074.53;;;13.14;96.17
46782;BME280;32541;46.298;11.506;2022-10-23T16:35:42;90081.50;;;13.06;96.97
46782;BME280;32541;46.298;11.506;2022-10-23T16:38:08;90075.81;;;13.13;96.84
46782;BME280;32541;46.298;11.506;2022-10-23T16:40:33;90077.56;;;13.18;96.18
46782;BME280;32541;46.298;11.506;2022-10-23T16:42:58;90074.53;;;13.14;96.28
46782;BME280;32541;46.298;11.506;2022-10-23T16:45:24;90081.94;;;13.02;96.76
46782;BME280;32541;46.298;11.506;2022-10-23T16:47:49;90078.56;;;13.04;96.78
46782;BME280;32541;46.298;11.506;2022-10-23T16:50:15;90080.63;;;12.94;96.53
46782;BME280;32541;46.298;11.506;2022-10-23T16:52:40;90080.91;;;12.88;96.83
46782;BME280;32541;46.298;11.506;2022-10-23T16:55:06;90095.84;;;12.95;95.94
46782;BME280;32541;46.298;11.506;2022-10-23T16:57:33;90093.25;;;12.87;96.15
46782;BME280;32541;46.298;11.506;2022-10-23T16:59:59;90089.03;;;12.86;96.26
46782;BME280;32541;46.298;11.506;2022-10-23T17:02:24;90097.91;;;12.85;96.13
46782;BME280;32541;46.298;11.506;2022-10-23T17:04:49;90095.16;;;12.85;95.59
46782;BME280;32541;46.298;11.506;2022-10-23T17:07:15;90091.34;;;12.80;95.75
46782;BME280;32541;46.298;11.506;2022-10-23T17:09:43;90090.34;;;12.66;96.10
46782;BME280;32541;46.298;11.506;2022-10-23T17:12:11;90085.56;;;12.66;96.04
46782;BME280;32541;46.298;11.506;2022-10-23T17:14:36;90094.69;;;12.59;96.73
46782;BME280;32541;46.298;11.506;2022-10-23T17:17:02;90089.63;;;12.56;97.01
46782;BME280;32541;46.298;11.506;2022-10-23T17:19:30;90082.34;;;12.60;96.09
46782;BME280;32541;46.298;11.506;2022-10-23T17:21:55;90078.31;;;12.61;95.84
46782;BME280;32541;46.298;11.506;2022-10-23T17:24:22;90080.31;;;12.51;96.05
46782;BME280;32541;46.298;11.506;2022-10-23T17:26:47;90085.72;;;12.59;95.56
46782;BME280;32541;46.298;11.506;2022-10-23T17:29:14;90086.13;;;12.55;96.04
46782;BME280;32541;46.298;11.506;2022-10-23T17:31:42;90096.53;;;12.28;98.18
46782;BME280;32541;46.298;11.506;2022-10-23T17:34:11;90098.00;;;12.29;98.60
46782;BME280;32541;46.298;11.506;2022-10-23T17:36:40;90098.72;;;12.30;97.81
46782;BME280;32541;46.298;11.506;2022-10-23T17:39:08;90102.63;;;12.26;97.87
46782;BME280;32541;46.298;11.506;2022-10-23T17:41:34;90102.63;;;12.17;98.25
46782;BME280;32541;46.298;11.506;2022-10-23T17:44:00;90104.66;;;12.16;98.13
46782;BME280;32541;46.298;11.506;2022-10-23T17:46:26;90112.59;;;12.12;98.18
46782;BME280;32541;46.298;11.506;2022-10-23T17:48:51;90117.09;;;12.08;97.95
46782;BME280;32541;46.298;11.506;2022-10-23T17:51:22;90112.31;;;12.08;97.62
46782;BME280;32541;46.298;11.506;2022-10-23T17:53:50;90100.84;;;12.12;97.79
46782;BME280;32541;46.298;11.506;2022-10-23T17:56:21;90113.16;;;12.01;98.53
46782;BME280;32541;46.298;11.506;2022-10-23T17:58:51;90112.75;;;12.05;98.64
46782;BME280;32541;46.298;11.506;2022-10-23T18:01:21;90117.94;;;12.01;98.67
46782;BME280;32541;46.298;11.506;2022-10-23T18:03:48;90113.16;;;12.01;98.96
46782;BME280;32541;46.298;11.506;2022-10-23T18:06:16;90113.16;;;12.01;99.25
46782;BME280;32541;46.298;11.506;2022-10-23T18:08:43;90110.97;;;12.00;99.33
46782;BME280;32541;46.298;11.506;2022-10-23T18:11:17;90111.00;;;12.09;99.24
46782;BME280;32541;46.298;11.506;2022-10-23T18:13:43;90123.75;;;12.05;99.74
46782;BME280;32541;46.298;11.506;2022-10-23T18:16:09;90118.34;;;11.97;100.00
46782;BME280;32541;46.298;11.506;2022-10-23T18:18:36;90129.38;;;11.97;100.00
46782;BME280;32541;46.298;11.506;2022-10-23T18:21:03;90127.94;;;11.96;100.00
46782;BME280;32541;46.298;11.506;2022-10-23T18:23:30;90121.16;;;12.07;100.00
46782;BME280;32541;46.298;11.506;2022-10-23T18:25:57;90135.34;;;12.03;100.00
46782;BME280;32541;46.298;11.506;2022-10-23T18:28:22;90133.75;;;12.00;100.00
46782;BME280;32541;46.298;11.506;2022-10-23T18:30:48;90136.78;;;11.95;100.00
46782;BME280;32541;46.298;11.506;2022-10-23T18:33:15;90141.13;;;11.98;100.00
46782;BME280;32541;46.298;11.506;2022-10-23T18:35:41;90138.25;;;11.96;100.00
46782;BME280;32541;46.298;11.506;2022-10-23T18:38:07;90134.16;;;11.97;100.00
46782;BME280;32541;46.298;11.506;2022-10-23T18:40:35;90121.13;;;11.97;100.00
46782;BME280;32541;46.298;11.506;2022-10-23T18:43:03;90119.69;;;11.96;100.00
46782;BME280;32541;46.298;11.506;2022-10-23T18:45:29;90117.78;;;11.99;100.00
46782;BME280;32541;46.298;11.506;2022-10-23T18:47:54;90115.59;;;11.88;100.00
46782;BME280;32541;46.298;11.506;2022-10-23T18:50:20;90106.41;;;11.76;100.00
46782;BME280;32541;46.298;11.506;2022-10-23T18:52:45;90095.41;;;11.85;100.00
46782;BME280;32541;46.298;11.506;2022-10-23T18:55:11;90091.97;;;11.67;100.00
46782;BME280;32541;46.298;11.506;2022-10-23T18:57:37;90091.63;;;11.54;100.00
46782;BME280;32541;46.298;11.506;2022-10-23T19:00:04;90086.53;;;11.50;100.00
46782;BME280;32541;46.298;11.506;2022-10-23T19:02:30;90090.00;;;11.51;100.00
46782;BME280;32541;46.298;11.506;2022-10-23T19:04:57;90089.88;;;11.49;100.00
46782;BME280;32541;46.298;11.506;2022-10-23T19:07:23;90092.44;;;11.47;100.00
46782;BME280;32541;46.298;11.506;2022-10-23T19:09:48;90093.44;;;11.42;100.00
46782;BME280;32541;46.298;11.506;2022-10-23T19:12:15;90083.56;;;11.39;100.00
46782;BME280;32541;46.298;11.506;2022-10-23T19:14:44;90078.19;;;11.31;100.00
46782;BME280;32541;46.298;11.506;2022-10-23T19:17:31;90088.56;;;11.50;100.00
46782;BME280;32541;46.298;11.506;2022-10-23T19:20:06;90096.94;;;11.42;100.00
46782;BME280;32541;46.298;11.506;2022-10-23T19:22:34;90100.41;;;11.43;100.00
46782;BME280;32541;46.298;11.506;2022-10-23T19:25:08;90097.50;;;11.41;100.00
46782;BME280;32541;46.298;11.506;2022-10-23T19:27:36;90101.25;;;11.36;100.00
46782;BME280;32541;46.298;11.506;2022-10-23T19:30:03;90100.44;;;11.26;100.00
46782;BME280;32541;46.298;11.506;2022-10-23T19:32:31;90101.50;;;11.30;100.00
46782;BME280;32541;46.298;11.506;2022-10-23T19:34:58;90094.78;;;11.24;100.00
46782;BME280;32541;46.298;11.506;2022-10-23T19:37:25;90087.53;;;11.19;100.00
46782;BME280;32541;46.298;11.506;2022-10-23T19:39:52;90092.16;;;11.16;100.00
46782;BME280;32541;46.298;11.506;2022-10-23T19:42:18;90102.25;;;11.13;100.00
46782;BME280;32541;46.298;11.506;2022-10-23T19:44:45;90101.97;;;11.09;100.00
46782;BME280;32541;46.298;11.506;2022-10-23T19:47:12;90100.41;;;11.16;100.00
46782;BME280;32541;46.298;11.506;2022-10-23T19:49:38;90111.81;;;11.12;100.00
46782;BME280;32541;46.298;11.506;2022-10-23T19:52:04;90116.19;;;11.15;100.00
46782;BME280;32541;46.298;11.506;2022-10-23T19:54:33;90107.09;;;11.23;100.00
46782;BME280;32541;46.298;11.506;2022-10-23T19:57:02;90127.94;;;11.16;100.00
46782;BME280;32541;46.298;11.506;2022-10-23T19:59:27;90131.97;;;11.15;100.00
46782;BME280;32541;46.298;11.506;2022-10-23T20:01:53;90137.34;;;11.13;100.00
46782;BME280;32541;46.298;11.506;2022-10-23T20:04:18;90136.00;;;11.14;100.00
46782;BME280;32541;46.298;11.506;2022-10-23T20:06:44;90140.97;;;11.15;100.00
46782;BME280;32541;46.298;11.506;2022-10-23T20:09:09;90137.22;;;11.21;100.00
46782;BME280;32541;46.298;11.506;2022-10-23T20:11:37;90133.69;;;11.10;100.00
46782;BME280;32541;46.298;11.506;2022-10-23T20:14:03;90140.78;;;11.13;100.00
46782;BME280;32541;46.298;11.506;2022-10-23T20:16:31;90127.50;;;11.20;100.00
46782;BME280;32541;46.298;11.506;2022-10-23T20:18:57;90128.63;;;11.34;100.00
46782;BME280;32541;46.298;11.506;2022-10-23T20:21:24;90125.22;;;11.26;100.00
46782;BME280;32541;46.298;11.506;2022-10-23T20:23:50;90128.09;;;11.18;100.00
46782;BME280;32541;46.298;11.506;2022-10-23T20:26:17;90133.00;;;11.20;100.00
46782;BME280;32541;46.298;11.506;2022-10-23T20:28:45;90139.81;;;11.19;100.00
46782;BME280;32541;46.298;11.506;2022-10-23T20:31:14;90131.66;;;11.11;100.00
46782;BME280;32541;46.298;11.506;2022-10-23T20:33:40;90121.38;;;11.11;100.00
46782;BME280;32541;46.298;11.506;2022-10-23T20:36:07;90115.78;;;11.19;100.00
46782;BME280;32541;46.298;11.506;2022-10-23T20:38:34;90119.94;;;11.10;100.00
46782;BME280;32541;46.298;11.506;2022-10-23T20:41:01;90116.53;;;11.02;100.00
46782;BME280;32541;46.298;11.506;2022-10-23T20:43:32;90107.78;;;10.96;100.00
46782;BME280;32541;46.298;11.506;2022-10-23T20:46:05;90106.25;;;11.03;100.00
46782;BME280;32541;46.298;11.506;2022-10-23T20:48:34;90105.84;;;11.06;100.00
46782;BME280;32541;46.298;11.506;2022-10-23T20:51:05;90107.31;;;10.90;100.00
46782;BME280;32541;46.298;11.506;2022-10-23T20:53:33;90109.59;;;10.84;100.00
46782;BME280;32541;46.298;11.506;2022-10-23T20:56:13;90117.06;;;10.74;100.00
46782;BME280;32541;46.298;11.506;2022-10-23T20:58:39;90112.44;;;10.77;100.00
46782;BME280;32541;46.298;11.506;2022-10-23T21:01:08;90113.09;;;10.68;100.00
46782;BME280;32541;46.298;11.506;2022-10-23T21:03:33;90116.81;;;10.63;100.00
46782;BME280;32541;46.298;11.506;2022-10-23T21:06:11;90118.44;;;10.66;100.00
46782;BME280;32541;46.298;11.506;2022-10-23T21:08:37;90127.81;;;10.63;100.00
46782;BME280;32541;46.298;11.506;2022-10-23T21:11:03;90113.16;;;10.60;100.00
46782;BME280;32541;46.298;11.506;2022-10-23T21:13:28;90118.66;;;10.60;100.00
46782;BME280;32541;46.298;11.506;2022-10-23T21:15:55;90115.13;;;10.50;100.00
46782;BME280;32541;46.298;11.506;2022-10-23T21:18:21;90124.66;;;10.49;100.00
46782;BME280;32541;46.298;11.506;2022-10-23T21:20:50;90120.53;;;10.57;100.00
46782;BME280;32541;46.298;11.506;2022-10-23T21:23:15;90121.97;;;10.58;100.00
46782;BME280;32541;46.298;11.506;2022-10-23T21:25:42;90120.94;;;10.54;100.00
46782;BME280;32541;46.298;11.506;2022-10-23T21:28:08;90122.22;;;10.36;100.00
46782;BME280;32541;46.298;11.506;2022-10-23T21:30:35;90117.78;;;10.40;100.00
46782;BME280;32541;46.298;11.506;2022-10-23T21:33:02;90118.03;;;10.52;100.00
46782;BME280;32541;46.298;11.506;2022-10-23T21:35:28;90111.88;;;10.44;100.00
46782;BME280;32541;46.298;11.506;2022-10-23T21:37:54;90108.00;;;10.47;100.00
46782;BME280;32541;46.298;11.506;2022-10-23T21:40:20;90098.69;;;10.42;100.00
46782;BME280;32541;46.298;11.506;2022-10-23T21:42:45;90101.84;;;10.39;100.00
46782;BME280;32541;46.298;11.506;2022-10-23T21:45:11;90108.25;;;10.41;100.00
46782;BME280;32541;46.298;11.506;2022-10-23T21:47:36;90109.38;;;10.38;100.00
46782;BME280;32541;46.298;11.506;2022-10-23T21:50:02;90102.97;;;10.36;100.00
46782;BME280;32541;46.298;11.506;2022-10-23T21:52:28;90105.25;;;10.30;100.00
46782;BME280;32541;46.298;11.506;2022-10-23T21:54:53;90095.69;;;10.31;100.00
46782;BME280;32541;46.298;11.506;2022-10-23T21:57:19;90105.25;;;10.30;100.00
46782;BME280;32541;46.298;11.506;2022-10-23T21:59:45;90106.91;;;10.25;100.00
46782;BME280;32541;46.298;11.506;2022-10-23T22:02:11;90110.25;;;10.24;100.00
46782;BME280;32541;46.298;11.506;2022-10-23T22:04:37;90113.31;;;10.28;100.00
46782;BME280;32541;46.298;11.506;2022-10-23T22:07:03;90119.03;;;10.22;100.00
46782;BME280;32541;46.298;11.506;2022-10-23T22:09:30;90125.13;;;10.21;100.00
46782;BME280;32541;46.298;11.506;2022-10-23T22:11:56;90122.84;;;10.27;100.00
46782;BME280;32541;46.298;11.506;2022-10-23T22:14:24;90121.41;;;10.26;100.00
46782;BME280;32541;46.298;11.506;2022-10-23T22:16:50;90117.25;;;10.17;100.00
46782;BME280;32541;46.298;11.506;2022-10-23T22:19:17;90119.13;;;10.15;100.00
46782;BME280;32541;46.298;11.506;2022-10-23T22:21:43;90109.56;;;10.16;100.00
46782;BME280;32541;46.298;11.506;2022-10-23T22:24:09;90107.84;;;10.03;100.00
46782;BME280;32541;46.298;11.506;2022-10-23T22:26:37;90102.34;;;10.03;100.00
46782;BME280;32541;46.298;11.506;2022-10-23T22:29:06;90096.84;;;10.03;100.00
46782;BME280;32541;46.298;11.506;2022-10-23T22:31:33;90091.25;;;9.93;100.00
46782;BME280;32541;46.298;11.506;2022-10-23T22:34:00;90080.81;;;9.92;100.00
46782;BME280;32541;46.298;11.506;2022-10-23T22:36:26;90070.56;;;9.92;100.00
46782;BME280;32541;46.298;11.506;2022-10-23T22:38:51;90060.91;;;10.09;100.00
46782;BME280;32541;46.298;11.506;2022-10-23T22:41:17;90060.91;;;10.09;100.00
46782;BME280;32541;46.298;11.506;2022-10-23T22:43:43;90067.75;;;10.00;100.00
46782;BME280;32541;46.298;11.506;2022-10-23T22:46:17;90051.19;;;9.90;100.00
46782;BME280;32541;46.298;11.506;2022-10-23T22:48:43;90042.31;;;9.99;100.00
46782;BME280;32541;46.298;11.506;2022-10-23T22:51:11;90046.81;;;10.04;100.00
46782;BME280;32541;46.298;11.506;2022-10-23T22:53:36;90046.66;;;10.02;100.00
46782;BME280;32541;46.298;11.506;2022-10-23T22:56:10;90042.94;;;9.90;100.00
46782;BME280;32541;46.298;11.506;2022-10-23T22:58:36;90037.59;;;9.92;100.00
46782;BME280;32541;46.298;11.506;2022-10-23T23:01:09;90030.44;;;9.97;100.00
46782;BME280;32541;46.298;11.506;2022-10-23T23:03:36;90024.44;;;9.91;100.00
46782;BME280;32541;46.298;11.506;2022-10-23T23:06:03;90023.22;;;9.84;100.00
46782;BME280;32541;46.298;11.506;2022-10-23T23:08:29;90031.59;;;9.86;100.00
46782;BME280;32541;46.298;11.506;2022-10-23T23:10:55;90045.72;;;9.83;100.00
46782;BME280;32541;46.298;11.506;2022-10-23T23:13:21;90052.28;;;9.70;100.00
46782;BME280;32541;46.298;11.506;2022-10-23T23:15:47;90047.72;;;9.65;100.00
46782;BME280;32541;46.298;11.506;2022-10-23T23:18:13;90040.66;;;9.79;100.00
46782;BME280;32541;46.298;11.506;2022-10-23T23:20:38;90040.66;;;9.79;100.00
46782;BME280;32541;46.298;11.506;2022-10-23T23:23:04;90035.22;;;9.72;100.00
46782;BME280;32541;46.298;11.506;2022-10-23T23:25:29;90045.94;;;9.60;100.00
46782;BME280;32541;46.298;11.506;2022-10-23T23:27:55;90040.84;;;9.57;100.00
46782;BME280;32541;46.298;11.506;2022-10-23T23:30:20;90046.91;;;9.55;100.00
46782;BME280;32541;46.298;11.506;2022-10-23T23:32:47;90031.59;;;9.69;100.00
46782;BME280;32541;46.298;11.506;2022-10-23T23:35:12;90035.97;;;9.72;100.00
46782;BME280;32541;46.298;11.506;2022-10-23T23:37:38;90036.75;;;9.65;100.00
46782;BME280;32541;46.298;11.506;2022-10-23T23:40:03;90028.69;;;9.67;100.00
46782;BME280;32541;46.298;11.506;2022-10-23T23:42:29;90023.69;;;9.73;100.00
46782;BME280;32541;46.298;11.506;2022-10-23T23:44:54;90020.56;;;9.77;100.00
46782;BME280;32541;46.298;11.506;2022-10-23T23:47:20;90027.63;;;9.63;100.00
46782;BME280;32541;46.298;11.506;2022-10-23T23:49:52;90022.50;;;9.59;100.00
46782;BME280;32541;46.298;11.506;2022-10-23T23:52:26;90024.72;;;9.61;100.00
46782;BME280;32541;46.298;11.506;2022-10-23T23:54:59;90021.88;;;9.68;100.00
46782;BME280;32541;46.298;11.506;2022-10-23T23:57:25;90010.13;;;9.75;100.00
46782;BME280;32541;46.298;11.506;2022-10-23T23:59:50;90018.00;;;9.71;100.00
